Portada
METAR-TAF:

METAR-TAF

Aeroports :

Tulcán, Equador

latitud: 00-48-34N, longitud: 077-42-29W, altitud: 2941 m

Observació

L'informe es va fer fa 43 minuts, a les 21:00 UTC
Vent 8 kt del Est amb ràfegues de 19 kt
Temperatura 14°C
Humitat 67%
Pressió 1030 hPa
Visibilitat 10 km o més
Cel ennuvolat a una alçada de 2000 ft

METAR: SETU 182100Z 10008G19KT 9999 BKN020 14/08 Q1030

Hora: 16:43 (21:43 UTC)


TAF: manca

Observacions i pronòstics meteorològics de més de 4000 aeroports (METAR i TAF).

Les estacions disponibles són els punts grocs i vermells al mapa.

Posi el ratolí al punt desitjat per veure el nom de l'estació.

Feu clic per veure les observacions i els pronòstics meteorològics.

Per canviar el mapa: feu clic els botons verds amb una creu de color negre per apropar; al botó verd amb un guió per allunyar la imatge; o en les fletxes verdes per a mapes adjacents.


METAR-TAF: